首页
METAR-TAF:

METAR-TAF

机场 :

蓬图瓦兹, 法国

纬度: 49-05-48N, 经度: 002-02-27E, 海拔: 99米

当前天气观测

该预报发布于18分钟前的01:30 UTC
风速10节,风向,在东南南转西南之间变化
温度 6°C
湿度 87%
气压 992 hPa
能见度10公里或以上
阴天层高于1400英尺
小雨

METAR: LFPT 140130Z AUTO 18010KT 140V200 9999 -RA OVC014 06/04 Q0992

时间: 02:48 (01:48 UTC)


TAF: 丢失

超过4000个机场的气象观测和天气预报(METAR&TAF报告)。

可查询的气象台以黄色和红色小点在地图上表示。

将鼠标移到小点上方,可查看气象台名称。

然后点击查看天气观测和预报。

如需切换地图:点击带黑十字的绿色按钮放大地图;点击带横线的绿色按钮缩小地图;或者点击绿色箭头查看邻近地区的地图。


METAR-TAF: